Time;durP1;ratioP1;P1;durP2;ratioP2;P2;SDS_P1;SDS_P2;PMS_P1;PMS_P2;Temp;Humidity;BMP_temperature;BMP_pressure;BME280_temperature;BME280_humidity;BME280_pressure;Samples;Min_cycle;Max_cycle;Signal;HPM_P1;HPM_P2
2021/10/24 00:02:25;;;;;;;10.68;4.20;;;;;;;6.28;70.29;98817.44;4861429;29;20147;-86
2021/10/24 00:04:51;;;;;;;17.93;5.17;;;;;;;6.25;70.19;98813.41;4867421;29;20048;-87
2021/10/24 00:07:43;;;;;;;12.40;4.17;;;;;;;6.79;70.37;98885.28;4896778;29;20068;-86
2021/10/24 00:10:10;;;;;;;10.40;4.53;;;;;;;6.64;70.28;98868.44;4880138;29;20045;-87
2021/10/24 00:13:01;;;;;;;10.40;4.47;;;;;;;6.81;70.38;98888.47;4881690;29;20043;-88
2021/10/24 00:15:32;;;;;;;7.85;4.00;;;;;;;6.49;70.25;98831.47;4881948;29;20076;-88
2021/10/24 00:17:58;;;;;;;9.85;4.30;;;;;;;6.42;70.13;98834.56;4882910;29;20048;-88
2021/10/24 00:20:25;;;;;;;14.13;5.03;;;;;;;6.31;69.74;98817.66;4850761;29;20422;-88
2021/10/24 00:22:51;;;;;;;16.10;4.65;;;;;;;6.77;69.84;98894.81;4856025;29;20052;-87
2021/10/24 00:25:17;;;;;;;14.88;4.65;;;;;;;6.42;70.20;98848.13;4882897;29;20080;-88
2021/10/24 00:27:43;;;;;;;12.75;4.80;;;;;;;6.58;70.24;98873.13;4882732;29;20135;-86
2021/10/24 00:30:10;;;;;;;15.48;4.78;;;;;;;6.70;70.09;98884.34;4866971;29;20057;-88
2021/10/24 00:32:57;;;;;;;13.30;4.97;;;;;;;6.30;70.34;98832.31;4883513;29;20605;-88
2021/10/24 00:35:24;;;;;;;13.57;4.57;;;;;;;6.35;70.45;98831.44;4884758;29;20550;-88
2021/10/24 00:37:54;;;;;;;10.48;4.68;;;;;;;6.70;70.11;98895.19;4893613;29;20100;-86
2021/10/24 00:40:21;;;;;;;7.72;4.38;;;;;;;6.44;70.19;98840.50;4901712;29;20051;-86
2021/10/24 00:42:49;;;;;;;9.48;4.43;;;;;;;6.28;70.01;98817.44;4901996;29;20040;-85
2021/10/24 00:45:16;;;;;;;11.35;4.88;;;;;;;6.66;70.26;98894.19;4918150;29;20047;-88
2021/10/24 00:48:39;;;;;;;13.40;5.18;;;;;;;6.77;70.62;98903.78;4912584;29;20126;-89
2021/10/24 00:51:09;;;;;;;14.07;4.78;;;;;;;6.25;70.75;98832.41;4887392;29;20068;-88
2021/10/24 00:53:47;;;;;;;13.55;4.82;;;;;;;6.18;71.06;98812.97;4886170;29;20522;-88
2021/10/24 00:56:15;;;;;;;16.88;5.22;;;;;;;6.34;71.06;98838.78;4906106;29;20052;-89
2021/10/24 00:58:42;;;;;;;14.02;4.50;;;;;;;6.75;70.96;98900.53;4877464;29;20088;-88
2021/10/24 01:01:10;;;;;;;9.70;5.13;;;;;;;6.46;71.30;98857.31;4875247;29;20043;-89
2021/10/24 01:03:43;;;;;;;9.18;4.80;;;;;;;6.17;71.41;98832.28;4922715;29;20039;-90
2021/10/24 01:06:15;;;;;;;10.85;4.57;;;;;;;6.47;71.46;98871.69;4918399;29;20046;-90
2021/10/24 01:09:14;;;;;;;11.35;4.47;;;;;;;6.65;71.63;98903.41;4875550;29;20043;-89
2021/10/24 01:11:44;;;;;;;11.48;5.03;;;;;;;6.29;71.88;98852.44;4893626;29;20091;-89
2021/10/24 01:14:11;;;;;;;11.77;4.97;;;;;;;6.43;72.01;98876.91;4865160;29;20036;-88
2021/10/24 01:16:46;;;;;;;13.93;4.90;;;;;;;6.20;72.23;98854.19;4889690;29;20517;-87
2021/10/24 01:19:36;;;;;;;12.60;4.72;;;;;;;6.55;72.53;98909.03;4878930;29;20040;-89
2021/10/24 01:22:03;;;;;;;17.00;4.82;;;;;;;6.49;72.56;98891.19;4882497;29;20039;-89
2021/10/24 01:24:59;;;;;;;10.95;4.75;;;;;;;6.07;72.29;98822.38;4902458;29;20502;-90
2021/10/24 01:27:48;;;;;;;18.88;4.93;;;;;;;6.54;72.64;98910.13;4901238;29;20042;-91
2021/10/24 01:30:17;;;;;;;8.68;4.35;;;;;;;6.21;72.73;98861.22;4928789;29;20040;-90
2021/10/24 01:32:43;;;;;;;9.27;4.60;;;;;;;6.48;72.58;98903.16;4880527;29;20432;-90
2021/10/24 01:35:09;;;;;;;8.73;4.65;;;;;;;6.10;72.85;98859.78;4889596;29;20517;-89
2021/10/24 01:38:03;;;;;;;10.65;4.93;;;;;;;6.39;72.92;98902.22;4888661;29;20047;-88
2021/10/24 01:40:30;;;;;;;13.43;4.82;;;;;;;5.77;73.18;98823.63;4878435;29;20044;-88
2021/10/24 01:42:57;;;;;;;11.35;5.38;;;;;;;6.02;73.36;98872.09;4915419;29;20091;-87
2021/10/24 01:45:32;;;;;;;10.25;4.95;;;;;;;5.78;73.18;98831.44;4905763;29;20518;-87
2021/10/24 01:48:44;;;;;;;13.32;5.32;;;;;;;6.34;73.25;98919.41;4874037;29;20048;-90
2021/10/24 01:51:28;;;;;;;11.82;4.57;;;;;;;5.80;73.40;98834.69;4899510;29;20066;-88
2021/10/24 01:53:55;;;;;;;11.32;5.15;;;;;;;6.09;73.38;98885.28;4884619;29;20043;-88
2021/10/24 01:56:31;;;;;;;10.32;4.70;;;;;;;6.01;73.24;98861.56;4923680;29;20092;-88
2021/10/24 01:58:58;;;;;;;8.68;4.57;;;;;;;6.11;72.88;98874.97;4899809;29;20131;-90
2021/10/24 02:01:53;;;;;;;8.30;4.93;;;;;;;6.21;73.18;98884.84;4942184;29;20069;-89
2021/10/24 02:04:49;;;;;;;12.10;4.70;;;;;;;6.05;72.88;98862.56;4892413;29;20545;-89
2021/10/24 02:07:26;;;;;;;10.88;4.85;;;;;;;5.89;72.63;98843.78;4906043;29;20040;-90
2021/10/24 02:09:55;;;;;;;10.27;4.63;;;;;;;6.17;72.67;98876.50;4919322;29;20104;-88
2021/10/24 02:13:17;;;;;;;13.10;5.20;;;;;;;6.50;72.13;98928.13;4929962;29;20043;-90
2021/10/24 02:15:47;;;;;;;;;;;;;;;6.50;72.37;98931.66;4904759;29;20108;-87
2021/10/24 02:18:23;;;;;;;10.40;5.30;;;;;;;6.07;72.60;98868.53;4902686;29;19982;-88
2021/10/24 02:20:51;;;;;;;12.10;4.55;;;;;;;6.06;72.28;98869.59;4910226;29;20051;-88
2021/10/24 02:23:20;;;;;;;11.18;5.18;;;;;;;6.28;72.24;98896.94;4909479;23;20053;-88
2021/10/24 02:26:15;;;;;;;12.25;4.80;;;;;;;6.63;72.12;98937.44;4916442;29;20047;-90
2021/10/24 02:28:46;;;;;;;7.88;4.75;;;;;;;6.15;71.96;98869.75;4903389;29;20036;-89
2021/10/24 02:31:16;;;;;;;9.68;4.75;;;;;;;6.08;72.51;98848.41;4904870;29;20098;-88
2021/10/24 02:34:10;;;;;;;8.98;4.40;;;;;;;6.06;71.97;98848.72;4935731;29;20043;-89
2021/10/24 02:36:58;;;;;;;7.82;4.68;;;;;;;6.06;72.11;98850.59;4919921;29;20071;-90
2021/10/24 02:39:25;;;;;;;;;;;;;;;6.71;71.99;98940.25;4904640;29;20051;-89
2021/10/24 02:41:51;;;;;;;11.52;4.40;;;;;;;6.66;71.80;98929.50;4899303;29;19946;-89
2021/10/24 02:44:18;;;;;;;8.73;4.20;;;;;;;6.75;71.74;98938.56;4901175;29;20461;-89
2021/10/24 02:47:29;;;;;;;8.80;4.28;;;;;;;6.06;71.30;98832.44;4926021;29;20058;-88
2021/10/24 02:49:56;;;;;;;7.97;3.63;;;;;;;6.70;71.67;98943.28;4903166;29;20052;-89
2021/10/24 02:52:48;;;;;;;6.07;3.03;;;;;;;6.08;70.77;98840.28;4912394;29;20585;-87
2021/10/24 02:55:16;;;;;;;10.18;2.90;;;;;;;6.52;70.52;98929.44;4935758;29;20488;-85
2021/10/24 02:57:43;;;;;;;12.95;3.10;;;;;;;6.41;71.22;98913.59;4913008;29;20115;-86
2021/10/24 03:00:12;;;;;;;6.53;2.95;;;;;;;6.69;71.27;98941.66;4902773;29;20052;-86
2021/10/24 03:02:38;;;;;;;9.32;3.05;;;;;;;6.58;70.66;98946.44;4914777;29;20067;-85
2021/10/24 03:05:14;;;;;;;10.43;2.92;;;;;;;6.51;71.43;98937.88;4914701;29;20124;-85
2021/10/24 03:07:41;;;;;;;8.75;2.58;;;;;;;6.52;71.53;98937.59;4932529;29;20502;-86
2021/10/24 03:10:08;;;;;;;9.90;3.63;;;;;;;6.37;71.60;98915.31;4918261;29;20055;-86
2021/10/24 03:12:36;;;;;;;8.45;3.30;;;;;;;6.52;71.33;98937.59;4926433;29;20689;-85
2021/10/24 03:15:03;;;;;;;7.75;3.00;;;;;;;6.52;71.21;98925.91;4915577;29;20047;-85
2021/10/24 03:17:31;;;;;;;7.00;3.03;;;;;;;6.56;71.18;98946.75;4911657;29;20112;-85
2021/10/24 03:19:58;;;;;;;10.82;2.97;;;;;;;6.24;71.12;98904.06;4899231;29;20054;-87
2021/10/24 03:22:25;;;;;;;;;;;;;;;6.57;71.10;98937.50;4911260;29;20036;-87
2021/10/24 03:24:54;;;;;;;9.98;3.08;;;;;;;6.51;70.78;98932.44;4934813;29;19922;-85
2021/10/24 03:27:22;;;;;;;7.05;3.20;;;;;;;6.58;71.00;98946.44;4946484;29;20516;-85
2021/10/24 03:29:48;;;;;;;9.05;2.95;;;;;;;6.38;70.70;98920.41;4941675;29;20054;-86
2021/10/24 03:32:15;;;;;;;8.90;2.97;;;;;;;6.41;70.57;98927.19;4901717;29;20074;-86
2021/10/24 03:34:43;;;;;;;6.57;3.03;;;;;;;6.43;70.74;98939.38;4915771;29;20531;-83
2021/10/24 03:37:09;;;;;;;6.13;2.67;;;;;;;6.45;71.49;98949.91;4925594;29;20075;-85
2021/10/24 03:39:36;;;;;;;16.77;2.60;;;;;;;6.53;71.37;98963.66;4930956;29;20134;-85
2021/10/24 03:42:05;;;;;;;4.90;2.40;;;;;;;6.49;71.08;98967.22;4934966;29;20039;-85
2021/10/24 03:44:31;;;;;;;4.53;2.67;;;;;;;6.35;71.01;98953.59;4938792;29;20087;-86
2021/10/24 03:47:06;;;;;;;5.68;2.05;;;;;;;6.40;70.88;98966.28;4920316;29;20513;-87
2021/10/24 03:49:34;;;;;;;2.13;1.70;;;;;;;6.07;70.92;98925.50;4893195;29;20457;-86
2021/10/24 03:52:02;;;;;;;4.28;1.80;;;;;;;6.33;70.92;98972.91;4946257;29;20505;-86
2021/10/24 03:55:04;;;;;;;3.03;2.00;;;;;;;6.34;70.96;98973.69;4916107;29;20051;-87
2021/10/24 03:57:32;;;;;;;2.63;1.60;;;;;;;6.03;70.45;98917.13;4908688;29;20468;-86
2021/10/24 03:59:58;;;;;;;1.30;1.20;;;;;;;6.13;70.50;98967.75;4951926;29;20428;-85
2021/10/24 04:02:25;;;;;;;4.15;1.75;;;;;;;5.97;71.30;98940.00;4925900;29;20058;-88
2021/10/24 04:04:51;;;;;;;4.70;1.90;;;;;;;5.85;71.59;98943.09;4891082;29;20035;-87
2021/10/24 04:07:19;;;;;;;3.80;1.70;;;;;;;5.77;71.82;98941.03;4921725;29;20390;-88
2021/10/24 04:09:47;;;;;;;2.60;1.77;;;;;;;5.68;72.16;98926.50;4921547;29;20055;-87
2021/10/24 04:12:14;;;;;;;;;;;;;;;6.03;72.38;98989.59;4920087;29;20055;-87
2021/10/24 04:14:41;;;;;;;6.15;1.88;;;;;;;5.70;72.80;98956.88;4890137;29;19930;-86
2021/10/24 04:17:21;;;;;;;2.70;1.70;;;;;;;5.61;72.82;98929.56;4890476;29;20079;-86
2021/10/24 04:19:48;;;;;;;2.95;1.67;;;;;;;5.73;72.59;98952.75;4921161;29;20544;-86
2021/10/24 04:22:14;;;;;;;3.10;1.70;;;;;;;5.58;73.50;98956.47;4872300;29;20063;-87
2021/10/24 04:24:42;;;;;;;5.55;2.53;;;;;;;5.68;73.98;98969.91;4904913;29;20086;-86
2021/10/24 04:27:08;;;;;;;3.10;1.60;;;;;;;5.77;73.43;98992.56;4918425;29;20052;-85
2021/10/24 04:29:39;;;;;;;5.45;2.10;;;;;;;5.56;74.40;98986.59;4891178;29;20067;-86
2021/10/24 04:32:05;;;;;;;8.38;3.03;;;;;;;5.78;74.81;99015.88;4919169;29;20056;-87
2021/10/24 04:34:31;;;;;;;5.50;2.40;;;;;;;5.50;74.53;98959.81;4902948;29;20068;-87
2021/10/24 04:37:00;;;;;;;9.43;4.88;;;;;;;5.62;74.60;98969.13;4903917;29;20066;-87
2021/10/24 04:39:26;;;;;;;5.45;1.80;;;;;;;5.38;74.51;98955.59;4922357;29;20055;-86
2021/10/24 04:41:55;;;;;;;2.42;1.70;;;;;;;5.93;74.42;99027.69;4901565;29;20048;-89
2021/10/24 04:44:21;;;;;;;3.70;1.80;;;;;;;5.39;74.37;98956.38;4919381;29;20040;-85
2021/10/24 04:46:57;;;;;;;2.65;1.80;;;;;;;5.76;74.47;99001.81;4938816;29;20052;-87
2021/10/24 04:49:24;;;;;;;4.50;1.95;;;;;;;5.82;74.14;99000.63;4908492;29;20053;-87
2021/10/24 04:51:50;;;;;;;2.92;1.98;;;;;;;5.89;73.62;99009.25;4900798;29;20140;-86
2021/10/24 04:54:19;;;;;;;5.30;1.70;;;;;;;5.82;73.39;98999.84;4884198;29;20057;-87
2021/10/24 04:56:55;;;;;;;4.28;2.53;;;;;;;6.10;73.38;99038.88;4897761;29;20051;-87
2021/10/24 04:59:28;;;;;;;6.45;1.70;;;;;;;6.01;72.99;99030.56;4916018;29;20048;-86
2021/10/24 05:01:55;;;;;;;1.88;1.38;;;;;;;5.86;72.78;99017.97;4900453;29;20062;-87
2021/10/24 05:04:21;;;;;;;2.60;1.63;;;;;;;5.71;73.40;98996.44;4896429;29;20040;-87
2021/10/24 05:06:48;;;;;;;2.63;1.50;;;;;;;5.99;73.12;99053.66;4882709;29;20078;-88
2021/10/24 05:09:25;;;;;;;2.53;1.50;;;;;;;5.72;72.55;99027.06;4883580;29;20063;-86
2021/10/24 05:11:51;;;;;;;1.88;1.38;;;;;;;5.62;72.94;99022.56;4904015;29;20471;-87
2021/10/24 05:14:24;;;;;;;2.60;1.20;;;;;;;5.54;71.63;99021.31;4881411;29;20048;-85
2021/10/24 05:16:57;;;;;;;2.22;1.30;;;;;;;5.64;72.40;99042.88;4866579;29;20506;-91
2021/10/24 05:19:50;;;;;;;1.83;1.40;;;;;;;5.95;71.71;99083.28;4898417;29;20530;-87
2021/10/24 05:22:21;;;;;;;1.95;1.13;;;;;;;5.88;71.71;99080.88;4882784;29;20048;-84
2021/10/24 05:24:48;;;;;;;2.85;1.40;;;;;;;5.72;71.62;99057.72;4872829;29;20064;-87
2021/10/24 05:27:15;;;;;;;3.08;1.17;;;;;;;5.75;71.32;99049.00;4879958;29;20044;-88
2021/10/24 05:29:53;;;;;;;11.18;1.80;;;;;;;5.70;70.39;99042.84;4898536;29;20053;-88
2021/10/24 05:32:23;;;;;;;1.65;1.23;;;;;;;5.74;71.17;99063.66;4866976;29;20044;-92
2021/10/24 05:34:49;;;;;;;2.35;1.20;;;;;;;5.68;71.84;99051.25;4865838;29;20490;-86
2021/10/24 05:37:18;;;;;;;1.98;1.23;;;;;;;5.84;71.06;99049.19;4881535;29;20214;-88
2021/10/24 05:39:44;;;;;;;2.83;1.33;;;;;;;5.88;70.49;99077.34;4897497;29;20131;-87
2021/10/24 05:42:38;;;;;;;3.40;1.27;;;;;;;6.03;70.18;99085.38;4880871;29;20459;-88
2021/10/24 05:45:10;;;;;;;1.55;1.27;;;;;;;5.49;70.14;99013.22;4890067;29;20044;-93
2021/10/24 05:48:31;;;;;;;2.55;1.33;;;;;;;6.09;69.63;99103.22;4898210;23;20048;-89
2021/10/24 05:51:08;;;;;;;1.98;1.20;;;;;;;6.04;69.40;99095.13;4902619;29;20111;-78
2021/10/24 05:53:36;;;;;;;2.75;1.40;;;;;;;6.17;68.97;99096.34;4935031;29;20416;-78
2021/10/24 05:56:06;;;;;;;3.88;1.67;;;;;;;6.16;69.22;99112.88;4934629;29;20032;-78
2021/10/24 05:58:38;;;;;;;2.50;1.30;;;;;;;6.13;67.80;99111.59;4935118;29;20055;-82
2021/10/24 06:01:26;;;;;;;4.70;1.30;;;;;;;6.15;68.44;99117.50;4935811;29;20086;-77
2021/10/24 06:04:27;;;;;;;2.50;1.38;;;;;;;6.03;68.39;99109.78;4935400;29;20302;-77
2021/10/24 06:07:11;;;;;;;2.30;1.30;;;;;;;6.17;68.29;99131.63;4936247;29;20081;-81
2021/10/24 06:09:56;;;;;;;2.97;1.30;;;;;;;6.27;68.09;99136.13;4935509;29;20040;-76
2021/10/24 06:15:01;;;;;;;3.97;1.50;;;;;;;6.16;68.11;99110.16;4935161;29;20417;-77
2021/10/24 06:17:27;;;;;;;;;;;;;;;6.26;68.13;99135.31;4925972;29;20134;-77
2021/10/24 06:19:53;;;;;;;2.17;1.50;;;;;;;6.26;68.25;99143.47;4935476;29;20395;-77
2021/10/24 06:22:19;;;;;;;2.90;1.70;;;;;;;6.31;67.74;99151.53;4932512;29;20052;-76
2021/10/24 06:24:45;;;;;;;3.30;1.50;;;;;;;6.30;67.78;99144.50;4917203;29;20126;-76
2021/10/24 06:27:19;;;;;;;3.28;1.70;;;;;;;6.19;67.88;99145.72;4932109;29;20505;-76
2021/10/24 06:29:46;;;;;;;8.10;1.50;;;;;;;6.35;67.69;99149.84;4916894;29;20047;-77
2021/10/24 06:32:19;;;;;;;2.03;1.33;;;;;;;6.33;67.28;99153.97;4931849;29;20482;-77
2021/10/24 06:34:45;;;;;;;5.47;1.65;;;;;;;6.24;67.79;99161.94;4933810;29;20042;-77
2021/10/24 06:37:38;;;;;;;2.20;1.30;;;;;;;6.19;67.65;99153.03;4931587;29;20043;-76
2021/10/24 06:40:06;;;;;;;2.53;1.20;;;;;;;6.11;67.49;99149.03;4931737;29;20055;-77
2021/10/24 06:42:32;;;;;;;2.90;1.67;;;;;;;6.25;67.33;99168.16;4914531;29;20141;-76
2021/10/24 06:45:25;;;;;;;3.38;1.15;;;;;;;6.31;67.16;99167.00;4932380;29;20047;-76
2021/10/24 06:48:26;;;;;;;1.85;1.10;;;;;;;6.40;67.67;99176.16;4954892;28;20073;-75
2021/10/24 06:51:17;;;;;;;2.20;1.30;;;;;;;6.28;67.16;99179.25;4952806;28;20050;-77
2021/10/24 06:54:15;;;;;;;6.13;1.70;;;;;;;6.33;67.73;99173.78;4909939;29;20063;-78
2021/10/24 06:56:46;;;;;;;5.00;1.55;;;;;;;6.28;67.64;99181.97;4909841;29;20058;-77
2021/10/24 06:59:21;;;;;;;2.10;1.48;;;;;;;6.35;68.21;99176.19;4909629;29;20134;-76
2021/10/24 07:02:20;;;;;;;1.50;1.20;;;;;;;6.23;67.53;99178.53;4886798;29;20063;-75
2021/10/24 07:05:23;;;;;;;3.95;1.50;;;;;;;6.29;67.93;99169.19;4871757;29;20056;-75
2021/10/24 07:07:59;;;;;;;5.05;1.63;;;;;;;6.50;67.23;99191.53;4903675;29;20071;-75
2021/10/24 07:10:25;;;;;;;10.13;1.70;;;;;;;6.51;67.65;99190.41;4893097;29;20060;-75
2021/10/24 07:12:51;;;;;;;3.47;1.73;;;;;;;6.39;66.90;99179.13;4892786;29;20134;-76
2021/10/24 07:15:20;;;;;;;3.38;1.67;;;;;;;6.44;66.68;99190.75;4878067;29;20032;-78
2021/10/24 07:17:47;;;;;;;3.00;1.70;;;;;;;6.49;66.60;99198.88;4886601;29;20494;-75
2021/10/24 07:20:14;;;;;;;3.20;1.40;;;;;;;6.56;66.46;99206.66;4888476;29;20121;-76
2021/10/24 07:22:50;;;;;;;4.65;1.52;;;;;;;6.59;66.18;99198.75;4888623;29;20056;-75
2021/10/24 07:25:25;;;;;;;7.97;1.58;;;;;;;6.63;66.45;99204.41;4907557;29;20722;-76
2021/10/24 07:27:52;;;;;;;4.03;1.58;;;;;;;6.61;66.11;99195.72;4875927;29;20399;-77
2021/10/24 07:30:19;;;;;;;2.60;1.45;;;;;;;6.64;65.96;99206.00;4936936;28;20057;-77
2021/10/24 07:32:52;;;;;;;6.28;1.95;;;;;;;6.73;66.44;99206.19;4949327;28;20154;-76
2021/10/24 07:35:39;;;;;;;4.85;1.30;;;;;;;6.82;65.51;99220.72;4966490;28;20035;-76
2021/10/24 07:38:12;;;;;;;2.10;1.20;;;;;;;6.89;65.68;99213.06;4948776;28;20054;-78
2021/10/24 07:40:48;;;;;;;2.30;1.40;;;;;;;6.85;65.38;99219.34;4930899;28;20102;-79
2021/10/24 07:43:19;;;;;;;2.38;1.23;;;;;;;6.91;65.84;99223.63;4948918;28;20049;-76
2021/10/24 07:45:52;;;;;;;3.95;1.52;;;;;;;6.71;65.72;99200.22;4948872;28;20053;-76
2021/10/24 07:48:23;;;;;;;1.63;1.25;;;;;;;6.61;65.90;99233.75;4945609;29;20062;-78
2021/10/24 07:50:50;;;;;;;1.30;1.00;;;;;;;6.61;65.88;99219.38;4948682;28;20404;-78
2021/10/24 07:53:26;;;;;;;1.52;1.20;;;;;;;6.72;66.01;99235.28;4966102;28;20054;-76
2021/10/24 07:55:54;;;;;;;5.32;1.10;;;;;;;6.63;65.52;99228.03;4932011;28;20074;-77
2021/10/24 07:58:45;;;;;;;5.68;1.55;;;;;;;6.59;66.04;99233.25;4940143;29;20052;-77
2021/10/24 08:01:11;;;;;;;;;;;;;;;6.59;66.48;99246.81;4929146;29;20942;-76
2021/10/24 08:03:37;;;;;;;6.40;1.60;;;;;;;6.70;66.33;99245.59;4957472;28;19922;-76
2021/10/24 08:06:06;;;;;;;5.13;1.55;;;;;;;6.51;65.49;99231.94;4947368;28;20054;-75
2021/10/24 08:08:34;;;;;;;4.78;1.58;;;;;;;6.57;65.56;99247.09;4964231;28;20135;-74
2021/10/24 08:11:04;;;;;;;2.38;1.40;;;;;;;6.65;65.65;99251.09;4946526;28;20054;-77
2021/10/24 08:13:32;;;;;;;3.83;1.67;;;;;;;6.55;65.43;99252.00;4961142;28;20544;-77
2021/10/24 08:16:01;;;;;;;3.85;1.77;;;;;;;6.52;65.48;99241.75;4944416;29;20501;-79
2021/10/24 08:18:27;;;;;;;3.45;1.80;;;;;;;6.55;64.83;99262.06;4927657;29;20094;-80
2021/10/24 08:21:13;;;;;;;4.15;2.05;;;;;;;6.61;65.93;99266.34;4944181;29;20043;-81
2021/10/24 08:23:45;;;;;;;7.65;1.92;;;;;;;6.70;65.39;99270.06;4927204;29;20051;-75
2021/10/24 08:26:16;;;;;;;4.82;1.77;;;;;;;6.65;63.75;99261.16;4950635;28;20109;-78
2021/10/24 08:28:43;;;;;;;7.80;2.10;;;;;;;6.75;64.46;99261.03;4945862;28;20087;-77
2021/10/24 08:31:29;;;;;;;5.38;2.22;;;;;;;6.73;63.66;99263.25;4962477;28;20103;-77
2021/10/24 08:34:00;;;;;;;7.55;2.22;;;;;;;6.82;64.69;99266.91;4964225;28;20038;-77
2021/10/24 08:36:27;;;;;;;9.10;2.25;;;;;;;6.75;64.68;99272.69;4965947;28;20081;-78
2021/10/24 08:38:54;;;;;;;7.10;2.10;;;;;;;6.72;65.01;99267.03;4958238;28;20066;-77
2021/10/24 08:41:25;;;;;;;3.63;1.98;;;;;;;6.83;65.10;99284.84;4946185;29;20952;-77
2021/10/24 08:43:55;;;;;;;5.53;2.42;;;;;;;6.73;65.84;99274.91;4957517;28;20046;-76
2021/10/24 08:46:22;;;;;;;6.75;2.17;;;;;;;6.63;66.28;99279.66;4965145;28;20971;-76
2021/10/24 08:48:48;;;;;;;;;;;;;;;6.69;67.44;99303.75;4965425;28;20090;-77
2021/10/24 08:51:19;;;;;;;4.45;2.17;;;;;;;6.62;67.79;99297.81;4947801;28;19968;-75
2021/10/24 08:53:48;;;;;;;12.40;3.40;;;;;;;6.62;67.40;99300.53;4947821;28;20164;-81
2021/10/24 08:56:20;;;;;;;15.73;3.42;;;;;;;6.69;66.96;99303.75;4951865;28;20047;-75
2021/10/24 08:58:46;;;;;;;13.68;3.47;;;;;;;6.75;67.35;99308.00;4945401;29;20507;-75
2021/10/24 09:01:17;;;;;;;7.80;2.90;;;;;;;6.78;68.25;99312.88;4928047;29;20061;-75
2021/10/24 09:04:07;;;;;;;9.75;3.47;;;;;;;6.77;67.67;99305.03;4959696;28;20038;-75
2021/10/24 09:06:56;;;;;;;13.98;3.45;;;;;;;6.82;65.82;99323.97;4946369;28;20053;-77
2021/10/24 09:09:34;;;;;;;7.65;3.05;;;;;;;6.92;67.43;99320.34;4946190;28;20047;-77
2021/10/24 09:12:06;;;;;;;6.78;2.47;;;;;;;6.90;66.95;99336.94;4963323;28;20092;-84
2021/10/24 09:14:43;;;;;;;6.47;2.72;;;;;;;7.04;66.76;99334.34;4945724;28;20133;-76
2021/10/24 09:17:13;;;;;;;7.32;3.30;;;;;;;6.98;66.63;99333.59;4962408;28;20486;-79
2021/10/24 09:19:41;;;;;;;18.33;3.17;;;;;;;7.04;65.71;99345.22;4962511;28;20042;-75
2021/10/24 09:22:29;;;;;;;5.97;2.80;;;;;;;6.98;65.21;99347.19;4962100;28;20043;-76
2021/10/24 09:25:16;;;;;;;4.47;2.38;;;;;;;6.87;66.01;99355.75;4945122;28;20464;-76
2021/10/24 09:27:51;;;;;;;4.88;2.35;;;;;;;6.93;65.91;99351.88;4944396;28;20038;-76
2021/10/24 09:30:27;;;;;;;5.30;2.20;;;;;;;6.87;64.57;99355.75;4962841;28;20058;-76
2021/10/24 09:33:05;;;;;;;5.82;2.45;;;;;;;7.00;65.02;99363.22;4955415;29;20118;-77
2021/10/24 09:35:39;;;;;;;5.40;2.20;;;;;;;6.88;64.78;99371.75;4938364;29;20500;-77
2021/10/24 09:38:44;;;;;;;4.68;1.95;;;;;;;6.92;64.03;99375.53;4914925;29;20533;-77
2021/10/24 09:41:31;;;;;;;5.63;1.80;;;;;;;6.66;63.24;99371.44;4900578;29;20418;-81
2021/10/24 09:44:16;;;;;;;4.13;1.80;;;;;;;6.81;62.36;99385.66;4896359;29;20139;-76
2021/10/24 09:47:09;;;;;;;5.53;1.58;;;;;;;6.56;63.34;99391.34;4896247;29;20047;-78
2021/10/24 09:49:41;;;;;;;5.28;1.70;;;;;;;6.62;63.08;99386.66;4893503;29;20073;-79
2021/10/24 09:52:28;;;;;;;6.65;1.90;;;;;;;6.70;62.12;99399.63;4911920;29;20048;-76
2021/10/24 09:54:59;;;;;;;3.30;1.85;;;;;;;6.75;63.53;99403.09;4899121;29;20051;-76
2021/10/24 09:57:25;;;;;;;15.68;2.22;;;;;;;6.49;62.11;99410.69;4914543;29;20139;-77
2021/10/24 09:59:53;;;;;;;8.73;1.88;;;;;;;6.60;62.68;99408.69;4914642;29;20184;-78
2021/10/24 10:02:20;;;;;;;5.22;1.60;;;;;;;6.71;63.03;99407.50;4898906;29;20064;-78
2021/10/24 10:04:46;;;;;;;4.65;2.15;;;;;;;6.71;62.11;99404.78;4895711;29;20139;-82
2021/10/24 10:07:14;;;;;;;4.00;1.57;;;;;;;6.65;60.93;99418.69;4909286;29;20077;-78
2021/10/24 10:09:41;;;;;;;4.32;1.80;;;;;;;6.62;60.29;99425.50;4957072;28;20051;-78
2021/10/24 10:12:10;;;;;;;12.38;3.00;;;;;;;6.45;61.23;99427.81;4974234;28;20069;-78
2021/10/24 10:14:41;;;;;;;3.20;1.80;;;;;;;6.56;59.73;99430.16;4973718;28;20035;-77
2021/10/24 10:17:12;;;;;;;5.63;2.17;;;;;;;6.64;59.13;99427.94;4974833;28;20054;-76
2021/10/24 10:19:41;;;;;;;5.00;2.22;;;;;;;6.56;59.61;99432.09;4969072;28;20034;-75
2021/10/24 10:22:21;;;;;;;6.47;2.10;;;;;;;6.68;59.62;99448.00;4959114;28;20047;-75
2021/10/24 10:24:54;;;;;;;3.22;1.48;;;;;;;6.48;58.92;99449.78;4967765;28;20093;-74
2021/10/24 10:27:27;;;;;;;5.20;1.63;;;;;;;6.36;59.90;99446.63;4973923;28;20038;-81
2021/10/24 10:30:01;;;;;;;3.15;1.63;;;;;;;6.44;60.76;99456.06;4950638;28;20105;-74
2021/10/24 10:32:36;;;;;;;3.72;1.50;;;;;;;6.53;61.71;99460.63;4942168;29;20637;-74
2021/10/24 10:35:11;;;;;;;6.22;1.40;;;;;;;6.25;61.85;99470.28;4945757;29;20054;-74
2021/10/24 10:37:55;;;;;;;5.20;1.63;;;;;;;6.18;64.14;99486.06;4953529;29;20039;-72
2021/10/24 10:40:34;;;;;;;5.88;1.75;;;;;;;5.93;64.51;99491.59;4950790;28;20265;-73
2021/10/24 10:43:17;;;;;;;4.25;2.35;;;;;;;5.73;65.56;99484.31;4971057;28;20051;-73
2021/10/24 10:45:56;;;;;;;4.65;2.03;;;;;;;5.67;66.68;99510.69;4962516;28;20035;-73
2021/10/24 10:48:38;;;;;;;7.93;2.28;;;;;;;6.04;65.89;99510.28;4966393;28;20133;-74
2021/10/24 10:51:16;;;;;;;6.85;2.50;;;;;;;6.40;66.19;99515.56;4951395;28;20445;-74
2021/10/24 10:53:47;;;;;;;5.38;2.50;;;;;;;6.39;65.86;99518.53;4957819;28;20070;-73
2021/10/24 10:56:13;;;;;;;3.50;1.90;;;;;;;6.11;66.18;99518.13;4954473;28;20082;-80
2021/10/24 10:58:46;;;;;;;4.85;1.80;;;;;;;6.02;64.31;99511.66;4985259;28;20403;-73
2021/10/24 11:01:28;;;;;;;8.30;3.10;;;;;;;6.19;66.40;99517.56;4954983;28;20042;-72
2021/10/24 11:04:09;;;;;;;5.43;2.78;;;;;;;6.01;65.66;99504.63;4965541;28;20536;-73
2021/10/24 11:06:36;;;;;;;4.05;1.90;;;;;;;6.02;64.36;99526.03;4969017;28;20089;-75
2021/10/24 11:09:07;;;;;;;6.75;2.00;;;;;;;5.99;64.68;99525.78;4958511;28;20558;-74
2021/10/24 11:11:37;;;;;;;5.13;2.03;;;;;;;6.08;65.56;99532.25;4969143;28;20129;-74
2021/10/24 11:14:15;;;;;;;5.60;2.35;;;;;;;6.80;64.26;99535.41;4961898;28;20078;-75
2021/10/24 11:16:48;;;;;;;4.30;1.70;;;;;;;7.49;60.52;99519.88;4969107;28;20489;-73
2021/10/24 11:19:29;;;;;;;6.95;2.72;;;;;;;6.99;59.63;99528.19;4961086;28;20047;-75
2021/10/24 11:21:58;;;;;;;22.73;5.90;;;;;;;6.73;61.19;99538.44;4968775;28;20042;-74
2021/10/24 11:24:37;;;;;;;14.93;3.80;;;;;;;6.79;60.58;99539.22;4959865;28;20632;-74
2021/10/24 11:27:05;;;;;;;12.38;4.47;;;;;;;6.54;60.19;99535.56;4968063;28;20045;-74
2021/10/24 11:29:32;;;;;;;8.48;3.55;;;;;;;6.47;60.83;99539.69;4959456;28;20041;-73
2021/10/24 11:32:28;;;;;;;9.02;3.38;;;;;;;6.38;61.83;99552.22;4967466;28;20038;-73
2021/10/24 11:34:59;;;;;;;9.57;3.08;;;;;;;6.24;61.29;99549.31;4945024;28;20054;-73
2021/10/24 11:37:35;;;;;;;6.78;3.53;;;;;;;6.10;61.28;99554.50;4965639;28;20042;-73
2021/10/24 11:40:09;;;;;;;3.65;1.95;;;;;;;6.05;62.39;99573.53;4958890;28;20667;-74
2021/10/24 11:42:37;;;;;;;4.20;2.03;;;;;;;5.93;62.25;99575.72;4982657;28;20539;-78
2021/10/24 11:45:25;;;;;;;5.25;2.33;;;;;;;5.66;62.99;99584.97;4981452;28;20035;-75
2021/10/24 11:48:05;;;;;;;6.88;2.55;;;;;;;5.73;63.64;99593.66;4972109;28;20508;-75
2021/10/24 11:51:05;;;;;;;5.05;2.35;;;;;;;5.69;63.29;99587.13;4965529;28;20583;-74
2021/10/24 11:53:40;;;;;;;10.13;2.40;;;;;;;5.75;62.96;99601.50;4953584;29;20047;-76
2021/10/24 11:56:11;;;;;;;17.08;2.40;;;;;;;5.59;62.68;99603.44;4955503;28;20536;-77
2021/10/24 12:01:20;;;;;;;16.63;2.67;;;;;;;5.19;61.40;99613.19;4972364;28;20504;-77
2021/10/24 12:04:05;;;;;;;32.88;2.92;;;;;;;5.25;61.35;99614.03;4972556;28;20066;-80
2021/10/24 12:07:03;;;;;;;34.08;3.40;;;;;;;5.32;61.73;99637.06;4971590;28;20039;-77
2021/10/24 12:09:43;;;;;;;21.23;3.58;;;;;;;5.32;63.04;99636.25;4975406;28;20042;-76
2021/10/24 12:12:23;;;;;;;14.30;4.78;;;;;;;5.24;64.46;99648.44;4972307;28;20083;-77
2021/10/24 12:14:54;;;;;;;8.30;3.80;;;;;;;5.27;64.68;99645.19;4939809;29;20062;-77
2021/10/24 12:17:21;;;;;;;9.23;3.28;;;;;;;5.13;62.36;99646.78;4956982;29;20050;-87
2021/10/24 12:19:49;;;;;;;15.30;2.90;;;;;;;4.89;60.85;99641.88;4956949;29;20437;-77
2021/10/24 12:22:18;;;;;;;17.90;2.25;;;;;;;5.10;59.50;99663.59;4957046;29;20047;-77